sensor_id;sensor_type;location;lat;lon;timestamp;temperature;humidity
6174;DHT22;3120;48.796;9.796;2022-11-15T00:00:49;8.90;99.90
6174;DHT22;3120;48.796;9.796;2022-11-15T00:03:20;9.70;99.90
6174;DHT22;3120;48.796;9.796;2022-11-15T00:05:46;8.90;99.90
6174;DHT22;3120;48.796;9.796;2022-11-15T00:08:12;8.90;99.90
6174;DHT22;3120;48.796;9.796;2022-11-15T00:10:37;8.90;99.90
6174;DHT22;3120;48.796;9.796;2022-11-15T00:13:11;8.90;99.90
6174;DHT22;3120;48.796;9.796;2022-11-15T00:15:59;8.90;99.90
6174;DHT22;3120;48.796;9.796;2022-11-15T00:18:25;8.90;99.90
6174;DHT22;3120;48.796;9.796;2022-11-15T00:20:51;8.90;99.90
6174;DHT22;3120;48.796;9.796;2022-11-15T00:23:17;8.90;99.90
6174;DHT22;3120;48.796;9.796;2022-11-15T00:25:42;9.00;99.90
6174;DHT22;3120;48.796;9.796;2022-11-15T00:28:08;9.00;99.90
6174;DHT22;3120;48.796;9.796;2022-11-15T00:30:33;10.30;99.90
6174;DHT22;3120;48.796;9.796;2022-11-15T00:33:06;11.00;99.90
6174;DHT22;3120;48.796;9.796;2022-11-15T00:35:32;9.90;99.90
6174;DHT22;3120;48.796;9.796;2022-11-15T00:37:59;10.40;99.90
6174;DHT22;3120;48.796;9.796;2022-11-15T00:40:25;9.00;99.90
6174;DHT22;3120;48.796;9.796;2022-11-15T00:42:50;10.10;99.90
6174;DHT22;3120;48.796;9.796;2022-11-15T00:45:16;9.00;99.90
6174;DHT22;3120;48.796;9.796;2022-11-15T00:47:44;9.10;99.90
6174;DHT22;3120;48.796;9.796;2022-11-15T00:50:10;9.00;99.90
6174;DHT22;3120;48.796;9.796;2022-11-15T00:52:36;9.00;99.90
6174;DHT22;3120;48.796;9.796;2022-11-15T00:55:02;9.00;99.90
6174;DHT22;3120;48.796;9.796;2022-11-15T00:57:27;9.00;99.90
6174;DHT22;3120;48.796;9.796;2022-11-15T00:59:53;9.00;99.90
6174;DHT22;3120;48.796;9.796;2022-11-15T01:02:18;9.00;99.90
6174;DHT22;3120;48.796;9.796;2022-11-15T01:04:44;9.00;99.90
6174;DHT22;3120;48.796;9.796;2022-11-15T01:07:10;9.00;99.90
6174;DHT22;3120;48.796;9.796;2022-11-15T01:09:35;9.00;99.90
6174;DHT22;3120;48.796;9.796;2022-11-15T01:12:04;9.00;99.90
6174;DHT22;3120;48.796;9.796;2022-11-15T01:14:29;9.00;99.90
6174;DHT22;3120;48.796;9.796;2022-11-15T01:16:55;9.50;99.90
6174;DHT22;3120;48.796;9.796;2022-11-15T01:19:21;8.90;99.90
6174;DHT22;3120;48.796;9.796;2022-11-15T01:21:49;8.90;99.90
6174;DHT22;3120;48.796;9.796;2022-11-15T01:24:15;8.80;99.90
6174;DHT22;3120;48.796;9.796;2022-11-15T01:26:41;8.80;99.90
6174;DHT22;3120;48.796;9.796;2022-11-15T01:29:06;8.80;99.90
6174;DHT22;3120;48.796;9.796;2022-11-15T01:31:32;8.80;99.90
6174;DHT22;3120;48.796;9.796;2022-11-15T01:33:57;8.80;99.90
6174;DHT22;3120;48.796;9.796;2022-11-15T01:36:23;8.70;99.90
6174;DHT22;3120;48.796;9.796;2022-11-15T01:38:57;8.70;99.90
6174;DHT22;3120;48.796;9.796;2022-11-15T01:41:31;8.70;99.90
6174;DHT22;3120;48.796;9.796;2022-11-15T01:47:03;8.50;99.90
6174;DHT22;3120;48.796;9.796;2022-11-15T01:49:31;8.40;99.90
6174;DHT22;3120;48.796;9.796;2022-11-15T01:51:58;8.40;99.90
6174;DHT22;3120;48.796;9.796;2022-11-15T01:54:26;8.40;99.90
6174;DHT22;3120;48.796;9.796;2022-11-15T01:56:59;8.30;99.90
6174;DHT22;3120;48.796;9.796;2022-11-15T01:59:27;8.30;99.90
6174;DHT22;3120;48.796;9.796;2022-11-15T02:01:53;8.20;99.90
6174;DHT22;3120;48.796;9.796;2022-11-15T02:04:26;8.10;99.90
6174;DHT22;3120;48.796;9.796;2022-11-15T02:06:52;8.00;99.90
6174;DHT22;3120;48.796;9.796;2022-11-15T02:09:18;7.90;99.90
6174;DHT22;3120;48.796;9.796;2022-11-15T02:11:44;7.90;99.90
6174;DHT22;3120;48.796;9.796;2022-11-15T02:14:11;7.80;99.90
6174;DHT22;3120;48.796;9.796;2022-11-15T02:23:24;7.60;99.90
6174;DHT22;3120;48.796;9.796;2022-11-15T02:29:08;7.50;99.90
6174;DHT22;3120;48.796;9.796;2022-11-15T02:42:53;7.30;99.90
6174;DHT22;3120;48.796;9.796;2022-11-15T02:45:51;8.40;99.90
6174;DHT22;3120;48.796;9.796;2022-11-15T02:48:19;7.20;99.90
6174;DHT22;3120;48.796;9.796;2022-11-15T02:50:47;7.20;99.90
6174;DHT22;3120;48.796;9.796;2022-11-15T02:53:14;7.10;99.90
6174;DHT22;3120;48.796;9.796;2022-11-15T02:55:48;7.10;99.90
6174;DHT22;3120;48.796;9.796;2022-11-15T03:04:07;7.10;99.90
6174;DHT22;3120;48.796;9.796;2022-11-15T03:07:46;7.10;99.90
6174;DHT22;3120;48.796;9.796;2022-11-15T03:10:01;7.10;99.90
6174;DHT22;3120;48.796;9.796;2022-11-15T03:12:41;8.30;99.90
6174;DHT22;3120;48.796;9.796;2022-11-15T03:15:11;7.00;99.90
6174;DHT22;3120;48.796;9.796;2022-11-15T03:17:51;7.00;99.90
6174;DHT22;3120;48.796;9.796;2022-11-15T03:20:19;6.90;99.90
6174;DHT22;3120;48.796;9.796;2022-11-15T03:22:46;6.90;99.90
6174;DHT22;3120;48.796;9.796;2022-11-15T03:25:17;6.90;99.90
6174;DHT22;3120;48.796;9.796;2022-11-15T03:27:50;6.80;99.90
6174;DHT22;3120;48.796;9.796;2022-11-15T03:30:17;6.80;99.90
6174;DHT22;3120;48.796;9.796;2022-11-15T03:33:09;6.70;99.90
6174;DHT22;3120;48.796;9.796;2022-11-15T03:35:40;6.70;99.90
6174;DHT22;3120;48.796;9.796;2022-11-15T03:41:01;6.60;99.90
6174;DHT22;3120;48.796;9.796;2022-11-15T03:43:51;6.60;99.90
6174;DHT22;3120;48.796;9.796;2022-11-15T03:46:36;6.60;99.90
6174;DHT22;3120;48.796;9.796;2022-11-15T03:49:11;6.70;99.90
6174;DHT22;3120;48.796;9.796;2022-11-15T03:51:37;6.70;99.90
6174;DHT22;3120;48.796;9.796;2022-11-15T03:54:04;6.70;99.90
6174;DHT22;3120;48.796;9.796;2022-11-15T03:56:30;6.80;99.90
6174;DHT22;3120;48.796;9.796;2022-11-15T03:58:56;6.90;99.90
6174;DHT22;3120;48.796;9.796;2022-11-15T04:01:21;6.90;99.90
6174;DHT22;3120;48.796;9.796;2022-11-15T04:03:47;8.90;99.90
6174;DHT22;3120;48.796;9.796;2022-11-15T04:06:12;6.90;99.90
6174;DHT22;3120;48.796;9.796;2022-11-15T04:11:46;6.80;99.90
6174;DHT22;3120;48.796;9.796;2022-11-15T04:14:12;6.70;99.90
6174;DHT22;3120;48.796;9.796;2022-11-15T04:16:37;6.70;99.90
6174;DHT22;3120;48.796;9.796;2022-11-15T04:19:03;8.90;99.90
6174;DHT22;3120;48.796;9.796;2022-11-15T04:21:47;6.60;99.90
6174;DHT22;3120;48.796;9.796;2022-11-15T04:24:31;6.50;99.90
6174;DHT22;3120;48.796;9.796;2022-11-15T04:26:57;6.50;99.90
6174;DHT22;3120;48.796;9.796;2022-11-15T04:29:22;7.20;99.90
6174;DHT22;3120;48.796;9.796;2022-11-15T04:32:06;6.50;99.90
6174;DHT22;3120;48.796;9.796;2022-11-15T04:34:32;6.50;99.90
6174;DHT22;3120;48.796;9.796;2022-11-15T04:36:58;6.50;99.90
6174;DHT22;3120;48.796;9.796;2022-11-15T04:39:41;6.60;99.90
6174;DHT22;3120;48.796;9.796;2022-11-15T04:42:07;6.60;99.90
6174;DHT22;3120;48.796;9.796;2022-11-15T04:44:33;6.70;99.90
6174;DHT22;3120;48.796;9.796;2022-11-15T04:46:58;6.70;99.90
6174;DHT22;3120;48.796;9.796;2022-11-15T04:49:24;6.80;99.90
6174;DHT22;3120;48.796;9.796;2022-11-15T04:51:49;6.80;99.90
6174;DHT22;3120;48.796;9.796;2022-11-15T04:54:17;6.80;99.90
6174;DHT22;3120;48.796;9.796;2022-11-15T04:56:42;6.70;99.90
6174;DHT22;3120;48.796;9.796;2022-11-15T04:59:08;6.80;99.90
6174;DHT22;3120;48.796;9.796;2022-11-15T05:01:34;6.90;99.90
6174;DHT22;3120;48.796;9.796;2022-11-15T05:03:59;6.90;99.90
6174;DHT22;3120;48.796;9.796;2022-11-15T05:06:43;6.90;99.90
6174;DHT22;3120;48.796;9.796;2022-11-15T05:09:09;6.90;99.90
6174;DHT22;3120;48.796;9.796;2022-11-15T05:11:34;6.90;99.90
6174;DHT22;3120;48.796;9.796;2022-11-15T05:14:00;6.90;99.90
6174;DHT22;3120;48.796;9.796;2022-11-15T05:16:57;6.90;99.90
6174;DHT22;3120;48.796;9.796;2022-11-15T05:19:22;6.90;99.90
6174;DHT22;3120;48.796;9.796;2022-11-15T05:21:48;6.90;99.90
6174;DHT22;3120;48.796;9.796;2022-11-15T05:24:14;6.90;99.90
6174;DHT22;3120;48.796;9.796;2022-11-15T05:26:40;7.00;99.90
6174;DHT22;3120;48.796;9.796;2022-11-15T05:29:06;7.00;99.90
6174;DHT22;3120;48.796;9.796;2022-11-15T05:31:31;7.00;99.90
6174;DHT22;3120;48.796;9.796;2022-11-15T05:34:04;7.00;99.90
6174;DHT22;3120;48.796;9.796;2022-11-15T05:36:41;7.00;99.90
6174;DHT22;3120;48.796;9.796;2022-11-15T05:39:15;7.10;99.90
6174;DHT22;3120;48.796;9.796;2022-11-15T05:41:57;7.10;99.90
6174;DHT22;3120;48.796;9.796;2022-11-15T05:44:25;7.10;99.90
6174;DHT22;3120;48.796;9.796;2022-11-15T05:46:52;7.10;99.90
6174;DHT22;3120;48.796;9.796;2022-11-15T05:49:22;7.10;99.90
6174;DHT22;3120;48.796;9.796;2022-11-15T05:51:49;7.20;99.90
6174;DHT22;3120;48.796;9.796;2022-11-15T05:54:15;7.20;99.90
6174;DHT22;3120;48.796;9.796;2022-11-15T05:56:41;8.70;99.90
6174;DHT22;3120;48.796;9.796;2022-11-15T05:59:08;7.10;99.90
6174;DHT22;3120;48.796;9.796;2022-11-15T06:01:40;7.10;99.90
6174;DHT22;3120;48.796;9.796;2022-11-15T06:04:06;7.10;99.90
6174;DHT22;3120;48.796;9.796;2022-11-15T06:06:31;7.10;99.90
6174;DHT22;3120;48.796;9.796;2022-11-15T06:08:57;7.00;99.90
6174;DHT22;3120;48.796;9.796;2022-11-15T06:11:22;7.00;99.90
6174;DHT22;3120;48.796;9.796;2022-11-15T06:13:48;6.90;99.90
6174;DHT22;3120;48.796;9.796;2022-11-15T06:16:14;6.90;99.90
6174;DHT22;3120;48.796;9.796;2022-11-15T06:18:39;6.90;99.90
6174;DHT22;3120;48.796;9.796;2022-11-15T06:21:05;6.90;99.90
6174;DHT22;3120;48.796;9.796;2022-11-15T06:23:37;6.80;99.90
6174;DHT22;3120;48.796;9.796;2022-11-15T06:26:03;6.80;99.90
6174;DHT22;3120;48.796;9.796;2022-11-15T06:28:29;7.00;99.90
6174;DHT22;3120;48.796;9.796;2022-11-15T06:30:55;8.10;99.90
6174;DHT22;3120;48.796;9.796;2022-11-15T06:33:21;9.20;99.90
6174;DHT22;3120;48.796;9.796;2022-11-15T06:35:52;7.60;99.90
6174;DHT22;3120;48.796;9.796;2022-11-15T06:38:17;6.60;99.90
6174;DHT22;3120;48.796;9.796;2022-11-15T06:40:43;6.60;99.90
6174;DHT22;3120;48.796;9.796;2022-11-15T06:43:09;6.60;99.90
6174;DHT22;3120;48.796;9.796;2022-11-15T06:45:34;6.60;99.90
6174;DHT22;3120;48.796;9.796;2022-11-15T06:48:00;6.60;99.90
6174;DHT22;3120;48.796;9.796;2022-11-15T06:50:25;6.60;99.90
6174;DHT22;3120;48.796;9.796;2022-11-15T06:52:51;6.60;99.90
6174;DHT22;3120;48.796;9.796;2022-11-15T06:55:16;6.60;99.90
6174;DHT22;3120;48.796;9.796;2022-11-15T06:57:52;6.70;99.90
6174;DHT22;3120;48.796;9.796;2022-11-15T07:00:20;6.70;99.90
6174;DHT22;3120;48.796;9.796;2022-11-15T07:02:46;6.70;99.90
6174;DHT22;3120;48.796;9.796;2022-11-15T07:05:12;6.70;99.90
6174;DHT22;3120;48.796;9.796;2022-11-15T07:07:39;6.70;99.90
6174;DHT22;3120;48.796;9.796;2022-11-15T07:10:05;6.70;99.90
6174;DHT22;3120;48.796;9.796;2022-11-15T07:12:36;6.70;99.90
6174;DHT22;3120;48.796;9.796;2022-11-15T07:15:02;6.80;99.90
6174;DHT22;3120;48.796;9.796;2022-11-15T07:17:27;6.80;99.90
6174;DHT22;3120;48.796;9.796;2022-11-15T07:19:53;6.90;99.90
6174;DHT22;3120;48.796;9.796;2022-11-15T07:22:19;6.90;99.90
6174;DHT22;3120;48.796;9.796;2022-11-15T07:24:45;6.90;99.90
6174;DHT22;3120;48.796;9.796;2022-11-15T07:27:10;6.90;99.90
6174;DHT22;3120;48.796;9.796;2022-11-15T07:29:36;6.90;99.90
6174;DHT22;3120;48.796;9.796;2022-11-15T07:32:01;7.00;99.90
6174;DHT22;3120;48.796;9.796;2022-11-15T07:34:27;7.00;99.90
6174;DHT22;3120;48.796;9.796;2022-11-15T07:36:53;7.20;99.90
6174;DHT22;3120;48.796;9.796;2022-11-15T07:39:18;7.00;99.90
6174;DHT22;3120;48.796;9.796;2022-11-15T07:41:44;7.10;99.90
6174;DHT22;3120;48.796;9.796;2022-11-15T07:44:09;7.10;99.90
6174;DHT22;3120;48.796;9.796;2022-11-15T07:46:35;7.10;99.90
6174;DHT22;3120;48.796;9.796;2022-11-15T07:49:01;7.20;99.90
6174;DHT22;3120;48.796;9.796;2022-11-15T07:51:26;9.00;99.90
6174;DHT22;3120;48.796;9.796;2022-11-15T07:53:52;7.20;99.90
6174;DHT22;3120;48.796;9.796;2022-11-15T07:56:17;7.30;99.90
6174;DHT22;3120;48.796;9.796;2022-11-15T07:58:45;7.40;99.90
6174;DHT22;3120;48.796;9.796;2022-11-15T08:01:11;7.40;99.90
6174;DHT22;3120;48.796;9.796;2022-11-15T08:03:37;8.70;99.90
6174;DHT22;3120;48.796;9.796;2022-11-15T08:06:03;7.60;99.90
6174;DHT22;3120;48.796;9.796;2022-11-15T08:08:29;7.60;99.90
6174;DHT22;3120;48.796;9.796;2022-11-15T08:10:54;7.70;99.90
6174;DHT22;3120;48.796;9.796;2022-11-15T08:13:22;7.80;99.90
6174;DHT22;3120;48.796;9.796;2022-11-15T08:15:48;7.90;99.90
6174;DHT22;3120;48.796;9.796;2022-11-15T08:18:15;8.10;99.90
6174;DHT22;3120;48.796;9.796;2022-11-15T08:20:41;10.00;99.90
6174;DHT22;3120;48.796;9.796;2022-11-15T08:23:09;8.40;99.90
6174;DHT22;3120;48.796;9.796;2022-11-15T08:25:35;8.60;99.90
6174;DHT22;3120;48.796;9.796;2022-11-15T08:28:04;8.80;99.90
6174;DHT22;3120;48.796;9.796;2022-11-15T08:30:33;9.00;99.90
6174;DHT22;3120;48.796;9.796;2022-11-15T08:32:59;9.90;99.90
6174;DHT22;3120;48.796;9.796;2022-11-15T08:35:25;9.40;99.90
6174;DHT22;3120;48.796;9.796;2022-11-15T08:37:53;10.90;99.90
6174;DHT22;3120;48.796;9.796;2022-11-15T08:40:18;9.70;99.90
6174;DHT22;3120;48.796;9.796;2022-11-15T08:42:46;9.80;99.90
6174;DHT22;3120;48.796;9.796;2022-11-15T08:45:12;11.70;99.90
6174;DHT22;3120;48.796;9.796;2022-11-15T08:47:38;10.00;99.90
6174;DHT22;3120;48.796;9.796;2022-11-15T08:50:04;10.20;99.90
6174;DHT22;3120;48.796;9.796;2022-11-15T08:52:29;10.30;99.90
6174;DHT22;3120;48.796;9.796;2022-11-15T08:54:55;10.50;89.40
6174;DHT22;3120;48.796;9.796;2022-11-15T08:57:20;10.60;1.30
6174;DHT22;3120;48.796;9.796;2022-11-15T08:59:46;12.00;1.00
6174;DHT22;3120;48.796;9.796;2022-11-15T09:02:13;11.00;1.00
6174;DHT22;3120;48.796;9.796;2022-11-15T09:04:40;11.20;1.00
6174;DHT22;3120;48.796;9.796;2022-11-15T09:07:07;11.30;1.00
6174;DHT22;3120;48.796;9.796;2022-11-15T09:09:32;11.40;1.00
6174;DHT22;3120;48.796;9.796;2022-11-15T09:11:58;11.60;1.00
6174;DHT22;3120;48.796;9.796;2022-11-15T09:14:23;11.70;1.00
6174;DHT22;3120;48.796;9.796;2022-11-15T09:16:49;11.90;1.00
6174;DHT22;3120;48.796;9.796;2022-11-15T09:19:15;12.10;1.00
6174;DHT22;3120;48.796;9.796;2022-11-15T09:21:41;13.00;99.90
6174;DHT22;3120;48.796;9.796;2022-11-15T09:24:07;12.40;71.20
6174;DHT22;3120;48.796;9.796;2022-11-15T09:26:32;12.60;1.00
6174;DHT22;3120;48.796;9.796;2022-11-15T09:28:58;12.70;1.00
6174;DHT22;3120;48.796;9.796;2022-11-15T09:31:23;12.80;25.80
6174;DHT22;3120;48.796;9.796;2022-11-15T09:33:49;13.10;99.90
6174;DHT22;3120;48.796;9.796;2022-11-15T09:36:15;13.20;1.00
6174;DHT22;3120;48.796;9.796;2022-11-15T09:38:42;13.10;99.90
6174;DHT22;3120;48.796;9.796;2022-11-15T09:44:03;13.50;1.00
6174;DHT22;3120;48.796;9.796;2022-11-15T09:49:38;13.90;83.40
6174;DHT22;3120;48.796;9.796;2022-11-15T09:52:04;14.10;99.90
6174;DHT22;3120;48.796;9.796;2022-11-15T09:54:43;14.20;99.90
6174;DHT22;3120;48.796;9.796;2022-11-15T09:57:31;15.70;99.90
6174;DHT22;3120;48.796;9.796;2022-11-15T10:00:16;14.50;1.00
6174;DHT22;3120;48.796;9.796;2022-11-15T10:03:03;14.10;1.00
6174;DHT22;3120;48.796;9.796;2022-11-15T10:05:31;14.20;99.90
6174;DHT22;3120;48.796;9.796;2022-11-15T10:10:55;14.40;8.20
6174;DHT22;3120;48.796;9.796;2022-11-15T10:13:26;15.70;99.90
6174;DHT22;3120;48.796;9.796;2022-11-15T10:21:58;14.60;99.90
6174;DHT22;3120;48.796;9.796;2022-11-15T10:24:28;14.70;1.00
6174;DHT22;3120;48.796;9.796;2022-11-15T10:26:55;14.80;4.80
6174;DHT22;3120;48.796;9.796;2022-11-15T10:29:22;14.80;1.00
6174;DHT22;3120;48.796;9.796;2022-11-15T10:31:48;15.80;1.00
6174;DHT22;3120;48.796;9.796;2022-11-15T10:34:20;14.70;1.00
6174;DHT22;3120;48.796;9.796;2022-11-15T10:36:56;15.50;12.50
6174;DHT22;3120;48.796;9.796;2022-11-15T10:39:23;14.70;1.00
6174;DHT22;3120;48.796;9.796;2022-11-15T10:41:49;14.60;1.00
6174;DHT22;3120;48.796;9.796;2022-11-15T10:47:22;14.50;99.90
6174;DHT22;3120;48.796;9.796;2022-11-15T10:50:38;15.60;1.00
6174;DHT22;3120;48.796;9.796;2022-11-15T10:52:45;14.70;1.00
6174;DHT22;3120;48.796;9.796;2022-11-15T10:57:38;16.80;1.00
6174;DHT22;3120;48.796;9.796;2022-11-15T11:00:27;15.20;1.00
6174;DHT22;3120;48.796;9.796;2022-11-15T11:06:10;14.90;1.00
6174;DHT22;3120;48.796;9.796;2022-11-15T11:08:36;14.90;1.00
6174;DHT22;3120;48.796;9.796;2022-11-15T11:11:03;15.00;43.00
6174;DHT22;3120;48.796;9.796;2022-11-15T11:16:17;15.00;99.90
6174;DHT22;3120;48.796;9.796;2022-11-15T11:19:02;15.10;1.00
6174;DHT22;3120;48.796;9.796;2022-11-15T11:27:49;15.50;1.00
6174;DHT22;3120;48.796;9.796;2022-11-15T11:38:33;15.90;99.90
6174;DHT22;3120;48.796;9.796;2022-11-15T11:44:07;15.80;99.90
6174;DHT22;3120;48.796;9.796;2022-11-15T11:46:59;15.70;99.90
6174;DHT22;3120;48.796;9.796;2022-11-15T11:49:50;15.70;99.90
6174;DHT22;3120;48.796;9.796;2022-11-15T11:52:33;15.60;99.90
6174;DHT22;3120;48.796;9.796;2022-11-15T12:00:27;15.80;99.90
6174;DHT22;3120;48.796;9.796;2022-11-15T12:05:44;15.90;45.60
6174;DHT22;3120;48.796;9.796;2022-11-15T12:08:23;16.00;99.30
6174;DHT22;3120;48.796;9.796;2022-11-15T12:11:01;16.10;99.90
6174;DHT22;3120;48.796;9.796;2022-11-15T12:13:30;16.20;99.90
6174;DHT22;3120;48.796;9.796;2022-11-15T12:18:53;16.30;99.90
6174;DHT22;3120;48.796;9.796;2022-11-15T12:27:38;16.30;95.50
6174;DHT22;3120;48.796;9.796;2022-11-15T12:30:15;16.30;94.10
6174;DHT22;3120;48.796;9.796;2022-11-15T12:33:09;16.30;59.70
6174;DHT22;3120;48.796;9.796;2022-11-15T12:36:08;16.30;21.00
6174;DHT22;3120;48.796;9.796;2022-11-15T12:38:55;16.30;53.70
6174;DHT22;3120;48.796;9.796;2022-11-15T12:41:23;16.30;1.00
6174;DHT22;3120;48.796;9.796;2022-11-15T12:43:49;16.30;1.00
6174;DHT22;3120;48.796;9.796;2022-11-15T12:54:49;16.50;24.40
6174;DHT22;3120;48.796;9.796;2022-11-15T12:59:58;16.50;1.00
6174;DHT22;3120;48.796;9.796;2022-11-15T13:12:59;16.20;27.60
6174;DHT22;3120;48.796;9.796;2022-11-15T13:18:37;16.10;85.50
6174;DHT22;3120;48.796;9.796;2022-11-15T13:21:04;16.30;61.10
6174;DHT22;3120;48.796;9.796;2022-11-15T13:23:54;16.20;99.90
6174;DHT22;3120;48.796;9.796;2022-11-15T13:26:21;16.20;99.90
6174;DHT22;3120;48.796;9.796;2022-11-15T13:28:48;16.20;90.20
6174;DHT22;3120;48.796;9.796;2022-11-15T13:33:48;16.60;78.80
6174;DHT22;3120;48.796;9.796;2022-11-15T13:36:26;16.70;70.90
6174;DHT22;3120;48.796;9.796;2022-11-15T13:39:04;16.00;85.30
6174;DHT22;3120;48.796;9.796;2022-11-15T13:41:35;15.90;57.60
6174;DHT22;3120;48.796;9.796;2022-11-15T13:44:02;17.60;59.00
6174;DHT22;3120;48.796;9.796;2022-11-15T13:46:30;16.00;25.70
6174;DHT22;3120;48.796;9.796;2022-11-15T13:49:08;16.00;57.40
6174;DHT22;3120;48.796;9.796;2022-11-15T13:51:46;16.10;68.20
6174;DHT22;3120;48.796;9.796;2022-11-15T13:56:55;17.30;91.80
6174;DHT22;3120;48.796;9.796;2022-11-15T14:01:52;15.90;99.90
6174;DHT22;3120;48.796;9.796;2022-11-15T14:04:25;15.80;99.90
6174;DHT22;3120;48.796;9.796;2022-11-15T14:06:58;15.80;99.90
6174;DHT22;3120;48.796;9.796;2022-11-15T14:09:32;15.80;99.90
6174;DHT22;3120;48.796;9.796;2022-11-15T14:12:02;15.80;69.80
6174;DHT22;3120;48.796;9.796;2022-11-15T14:14:29;15.80;99.90
6174;DHT22;3120;48.796;9.796;2022-11-15T14:22:58;15.50;99.90
6174;DHT22;3120;48.796;9.796;2022-11-15T14:25:25;15.70;99.90
6174;DHT22;3120;48.796;9.796;2022-11-15T14:30:47;15.40;99.90
6174;DHT22;3120;48.796;9.796;2022-11-15T14:33:30;15.90;99.90
6174;DHT22;3120;48.796;9.796;2022-11-15T14:35:58;15.60;99.90
6174;DHT22;3120;48.796;9.796;2022-11-15T14:38:27;15.70;1.00
6174;DHT22;3120;48.796;9.796;2022-11-15T14:40:54;15.20;1.00
6174;DHT22;3120;48.796;9.796;2022-11-15T14:43:21;15.20;99.90
6174;DHT22;3120;48.796;9.796;2022-11-15T14:45:48;15.30;1.00
6174;DHT22;3120;48.796;9.796;2022-11-15T14:48:13;16.30;99.90
6174;DHT22;3120;48.796;9.796;2022-11-15T14:50:39;15.10;6.50
6174;DHT22;3120;48.796;9.796;2022-11-15T14:53:05;15.00;1.00
6174;DHT22;3120;48.796;9.796;2022-11-15T14:55:33;15.80;1.00
6174;DHT22;3120;48.796;9.796;2022-11-15T14:58:02;14.90;99.90
6174;DHT22;3120;48.796;9.796;2022-11-15T15:00:29;17.30;97.80
6174;DHT22;3120;48.796;9.796;2022-11-15T15:02:55;14.70;1.00
6174;DHT22;3120;48.796;9.796;2022-11-15T15:07:58;14.50;99.90
6174;DHT22;3120;48.796;9.796;2022-11-15T15:10:25;14.50;99.90
6174;DHT22;3120;48.796;9.796;2022-11-15T15:12:53;14.30;1.00
6174;DHT22;3120;48.796;9.796;2022-11-15T15:15:24;14.20;99.90
6174;DHT22;3120;48.796;9.796;2022-11-15T15:17:50;16.00;1.00
6174;DHT22;3120;48.796;9.796;2022-11-15T15:20:15;14.10;99.90
6174;DHT22;3120;48.796;9.796;2022-11-15T15:22:41;14.00;1.00
6174;DHT22;3120;48.796;9.796;2022-11-15T15:25:28;14.00;99.90
6174;DHT22;3120;48.796;9.796;2022-11-15T15:27:55;16.00;99.90
6174;DHT22;3120;48.796;9.796;2022-11-15T15:30:22;13.50;99.90
6174;DHT22;3120;48.796;9.796;2022-11-15T15:32:47;14.70;1.00
6174;DHT22;3120;48.796;9.796;2022-11-15T15:35:14;15.30;1.00
6174;DHT22;3120;48.796;9.796;2022-11-15T15:37:41;14.40;99.90
6174;DHT22;3120;48.796;9.796;2022-11-15T15:40:18;15.70;99.90
6174;DHT22;3120;48.796;9.796;2022-11-15T15:42:45;13.60;99.90
6174;DHT22;3120;48.796;9.796;2022-11-15T15:45:11;13.40;1.00
6174;DHT22;3120;48.796;9.796;2022-11-15T15:47:37;15.20;99.90
6174;DHT22;3120;48.796;9.796;2022-11-15T15:50:16;13.30;99.90
6174;DHT22;3120;48.796;9.796;2022-11-15T15:52:42;13.20;1.00
6174;DHT22;3120;48.796;9.796;2022-11-15T15:55:08;14.30;99.90
6174;DHT22;3120;48.796;9.796;2022-11-15T15:57:34;13.20;99.90
6174;DHT22;3120;48.796;9.796;2022-11-15T15:59:59;13.10;1.00
6174;DHT22;3120;48.796;9.796;2022-11-15T16:02:25;13.00;1.00
6174;DHT22;3120;48.796;9.796;2022-11-15T16:04:50;13.10;1.00
6174;DHT22;3120;48.796;9.796;2022-11-15T16:07:21;13.00;1.00
6174;DHT22;3120;48.796;9.796;2022-11-15T16:09:49;14.90;1.00
6174;DHT22;3120;48.796;9.796;2022-11-15T16:12:31;14.50;1.00
6174;DHT22;3120;48.796;9.796;2022-11-15T16:14:58;12.80;1.00
6174;DHT22;3120;48.796;9.796;2022-11-15T16:17:30;14.50;1.00
6174;DHT22;3120;48.796;9.796;2022-11-15T16:19:56;14.00;1.00
6174;DHT22;3120;48.796;9.796;2022-11-15T16:22:22;13.90;1.00
6174;DHT22;3120;48.796;9.796;2022-11-15T16:24:48;13.00;1.00
6174;DHT22;3120;48.796;9.796;2022-11-15T16:27:17;12.70;1.00
6174;DHT22;3120;48.796;9.796;2022-11-15T16:29:43;12.60;1.00
6174;DHT22;3120;48.796;9.796;2022-11-15T16:32:09;12.60;1.00
6174;DHT22;3120;48.796;9.796;2022-11-15T16:34:35;13.10;1.00
6174;DHT22;3120;48.796;9.796;2022-11-15T16:37:01;12.50;1.00
6174;DHT22;3120;48.796;9.796;2022-11-15T16:39:26;13.90;1.00
6174;DHT22;3120;48.796;9.796;2022-11-15T16:41:56;12.90;1.00
6174;DHT22;3120;48.796;9.796;2022-11-15T16:44:21;12.40;18.80
6174;DHT22;3120;48.796;9.796;2022-11-15T16:46:49;12.90;59.10
6174;DHT22;3120;48.796;9.796;2022-11-15T16:49:17;14.10;75.30
6174;DHT22;3120;48.796;9.796;2022-11-15T16:51:47;14.10;82.40
6174;DHT22;3120;48.796;9.796;2022-11-15T16:54:14;13.90;87.90
6174;DHT22;3120;48.796;9.796;2022-11-15T16:56:40;12.20;86.30
6174;DHT22;3120;48.796;9.796;2022-11-15T16:59:08;12.20;96.80
6174;DHT22;3120;48.796;9.796;2022-11-15T17:01:35;12.20;73.60
6174;DHT22;3120;48.796;9.796;2022-11-15T17:04:03;12.20;82.40
6174;DHT22;3120;48.796;9.796;2022-11-15T17:06:38;12.10;86.30
6174;DHT22;3120;48.796;9.796;2022-11-15T17:09:05;14.20;90.80
6174;DHT22;3120;48.796;9.796;2022-11-15T17:11:31;12.10;96.80
6174;DHT22;3120;48.796;9.796;2022-11-15T17:13:58;12.70;99.90
6174;DHT22;3120;48.796;9.796;2022-11-15T17:16:24;13.70;99.90
6174;DHT22;3120;48.796;9.796;2022-11-15T17:18:50;12.20;99.90
6174;DHT22;3120;48.796;9.796;2022-11-15T17:21:18;13.10;87.00
6174;DHT22;3120;48.796;9.796;2022-11-15T17:23:44;13.20;74.20
6174;DHT22;3120;48.796;9.796;2022-11-15T17:26:10;12.10;73.10
6174;DHT22;3120;48.796;9.796;2022-11-15T17:28:37;12.80;81.70
6174;DHT22;3120;48.796;9.796;2022-11-15T17:31:13;11.90;93.20
6174;DHT22;3120;48.796;9.796;2022-11-15T17:33:39;12.70;99.90
6174;DHT22;3120;48.796;9.796;2022-11-15T17:36:09;11.80;99.90
6174;DHT22;3120;48.796;9.796;2022-11-15T17:38:34;11.80;99.90
6174;DHT22;3120;48.796;9.796;2022-11-15T17:41:02;13.60;90.20
6174;DHT22;3120;48.796;9.796;2022-11-15T17:43:29;11.80;99.00
6174;DHT22;3120;48.796;9.796;2022-11-15T17:45:55;12.70;99.90
6174;DHT22;3120;48.796;9.796;2022-11-15T17:48:20;11.70;99.90
6174;DHT22;3120;48.796;9.796;2022-11-15T17:51:06;11.70;99.90
6174;DHT22;3120;48.796;9.796;2022-11-15T17:59:09;11.60;99.90
6174;DHT22;3120;48.796;9.796;2022-11-15T18:02:02;11.40;99.90
6174;DHT22;3120;48.796;9.796;2022-11-15T18:05:08;11.50;99.90
6174;DHT22;3120;48.796;9.796;2022-11-15T18:11:21;12.00;99.90
6174;DHT22;3120;48.796;9.796;2022-11-15T18:14:18;11.30;99.90
6174;DHT22;3120;48.796;9.796;2022-11-15T18:17:07;11.20;99.90
6174;DHT22;3120;48.796;9.796;2022-11-15T18:19:52;11.80;99.90
6174;DHT22;3120;48.796;9.796;2022-11-15T18:22:32;11.20;99.90
6174;DHT22;3120;48.796;9.796;2022-11-15T18:28:46;11.20;99.90
6174;DHT22;3120;48.796;9.796;2022-11-15T18:31:20;12.00;99.90
6174;DHT22;3120;48.796;9.796;2022-11-15T18:36:54;11.10;99.90
6174;DHT22;3120;48.796;9.796;2022-11-15T18:39:32;11.10;99.90
6174;DHT22;3120;48.796;9.796;2022-11-15T18:42:24;10.70;99.90
6174;DHT22;3120;48.796;9.796;2022-11-15T18:45:06;11.20;99.90
6174;DHT22;3120;48.796;9.796;2022-11-15T18:47:32;11.10;99.90
6174;DHT22;3120;48.796;9.796;2022-11-15T18:50:03;11.20;99.90
6174;DHT22;3120;48.796;9.796;2022-11-15T18:52:54;11.10;99.90
6174;DHT22;3120;48.796;9.796;2022-11-15T18:59:20;11.30;99.90
6174;DHT22;3120;48.796;9.796;2022-11-15T19:09:00;11.30;99.90
6174;DHT22;3120;48.796;9.796;2022-11-15T19:11:58;11.20;99.90
6174;DHT22;3120;48.796;9.796;2022-11-15T19:14:46;11.40;99.90
6174;DHT22;3120;48.796;9.796;2022-11-15T19:17:46;10.60;99.90